sensor_id;sensor_type;location;lat;lon;timestamp;pressure;altitude;pressure_sealevel;temperature;humidity
21988;BME280;11158;53.404;-1.510;2023-05-10T00:00:09;99916.91;;;15.82;48.26
21988;BME280;11158;53.404;-1.510;2023-05-10T00:02:54;99918.72;;;15.69;47.97
21988;BME280;11158;53.404;-1.510;2023-05-10T00:05:38;99916.69;;;15.95;47.38
21988;BME280;11158;53.404;-1.510;2023-05-10T00:08:22;99927.78;;;15.87;47.52
21988;BME280;11158;53.404;-1.510;2023-05-10T00:11:06;99924.06;;;15.88;47.25
21988;BME280;11158;53.404;-1.510;2023-05-10T00:13:50;99926.22;;;16.09;46.73
21988;BME280;11158;53.404;-1.510;2023-05-10T00:16:35;99931.81;;;15.96;46.63
21988;BME280;11158;53.404;-1.510;2023-05-10T00:19:19;99931.50;;;16.16;46.38
21988;BME280;11158;53.404;-1.510;2023-05-10T00:22:03;99932.47;;;16.33;45.62
21988;BME280;11158;53.404;-1.510;2023-05-10T00:24:47;99937.38;;;16.37;45.25
21988;BME280;11158;53.404;-1.510;2023-05-10T00:27:31;99932.91;;;16.30;45.18
21988;BME280;11158;53.404;-1.510;2023-05-10T00:30:15;99934.69;;;16.48;44.69
21988;BME280;11158;53.404;-1.510;2023-05-10T00:33:00;99925.88;;;16.53;44.60
21988;BME280;11158;53.404;-1.510;2023-05-10T00:35:44;99930.31;;;16.12;45.42
21988;BME280;11158;53.404;-1.510;2023-05-10T00:38:29;99932.41;;;16.10;45.75
21988;BME280;11158;53.404;-1.510;2023-05-10T00:41:13;99930.47;;;16.29;45.51
21988;BME280;11158;53.404;-1.510;2023-05-10T00:43:58;99931.97;;;16.25;45.72
21988;BME280;11158;53.404;-1.510;2023-05-10T00:46:42;99926.78;;;16.00;46.28
21988;BME280;11158;53.404;-1.510;2023-05-10T00:49:27;99927.03;;;16.10;46.16
21988;BME280;11158;53.404;-1.510;2023-05-10T00:52:13;99932.47;;;15.80;47.37
21988;BME280;11158;53.404;-1.510;2023-05-10T00:54:57;99927.34;;;15.90;47.50
21988;BME280;11158;53.404;-1.510;2023-05-10T00:57:41;99920.09;;;16.02;47.24
21988;BME280;11158;53.404;-1.510;2023-05-10T01:00:36;99920.13;;;16.26;46.81
21988;BME280;11158;53.404;-1.510;2023-05-10T01:03:25;99920.31;;;16.01;47.17
21988;BME280;11158;53.404;-1.510;2023-05-10T01:06:10;99921.63;;;15.98;47.66
21988;BME280;11158;53.404;-1.510;2023-05-10T01:08:55;99928.50;;;15.94;48.07
21988;BME280;11158;53.404;-1.510;2023-05-10T01:11:40;99934.75;;;15.95;47.95
21988;BME280;11158;53.404;-1.510;2023-05-10T01:14:24;99920.50;;;15.76;48.64
21988;BME280;11158;53.404;-1.510;2023-05-10T01:17:09;99924.09;;;15.69;49.16
21988;BME280;11158;53.404;-1.510;2023-05-10T01:19:55;99916.72;;;15.65;49.29
21988;BME280;11158;53.404;-1.510;2023-05-10T01:33:21;99931.38;;;15.02;51.03
21988;BME280;11158;53.404;-1.510;2023-05-10T01:35:40;99929.50;;;15.39;50.46
21988;BME280;11158;53.404;-1.510;2023-05-10T01:38:38;99926.41;;;15.36;50.74
21988;BME280;11158;53.404;-1.510;2023-05-10T01:44:37;99928.84;;;14.88;52.22
21988;BME280;11158;53.404;-1.510;2023-05-10T01:50:11;99925.41;;;14.81;52.46
21988;BME280;11158;53.404;-1.510;2023-05-10T01:53:00;99925.53;;;15.42;50.98
21988;BME280;11158;53.404;-1.510;2023-05-10T01:55:48;99929.19;;;15.59;50.32
21988;BME280;11158;53.404;-1.510;2023-05-10T01:58:33;99938.09;;;15.78;49.71
21988;BME280;11158;53.404;-1.510;2023-05-10T02:01:21;99935.63;;;15.77;49.56
21988;BME280;11158;53.404;-1.510;2023-05-10T02:04:07;99929.72;;;15.68;49.80
21988;BME280;11158;53.404;-1.510;2023-05-10T02:06:53;99935.38;;;15.48;50.79
21988;BME280;11158;53.404;-1.510;2023-05-10T02:09:38;99937.50;;;14.72;53.31
21988;BME280;11158;53.404;-1.510;2023-05-10T02:12:23;99938.34;;;15.10;52.37
21988;BME280;11158;53.404;-1.510;2023-05-10T02:15:09;99944.22;;;15.37;52.01
21988;BME280;11158;53.404;-1.510;2023-05-10T02:17:55;99939.94;;;15.47;51.79
21988;BME280;11158;53.404;-1.510;2023-05-10T02:20:42;99944.91;;;15.81;50.81
21988;BME280;11158;53.404;-1.510;2023-05-10T02:23:28;99943.34;;;15.73;51.12
21988;BME280;11158;53.404;-1.510;2023-05-10T02:26:14;99947.47;;;15.57;51.85
21988;BME280;11158;53.404;-1.510;2023-05-10T02:28:58;99941.78;;;15.65;51.48
21988;BME280;11158;53.404;-1.510;2023-05-10T02:31:44;99947.03;;;15.60;51.98
21988;BME280;11158;53.404;-1.510;2023-05-10T02:34:33;99958.63;;;15.12;53.44
21988;BME280;11158;53.404;-1.510;2023-05-10T02:37:21;99948.53;;;15.56;52.71
21988;BME280;11158;53.404;-1.510;2023-05-10T02:40:07;99949.16;;;16.00;50.94
21988;BME280;11158;53.404;-1.510;2023-05-10T02:42:54;99948.25;;;16.06;50.37
21988;BME280;11158;53.404;-1.510;2023-05-10T02:45:40;99951.84;;;16.00;50.82
21988;BME280;11158;53.404;-1.510;2023-05-10T02:48:25;99941.56;;;16.09;50.31
21988;BME280;11158;53.404;-1.510;2023-05-10T02:51:11;99951.16;;;16.05;50.91
21988;BME280;11158;53.404;-1.510;2023-05-10T02:54:02;99954.06;;;15.91;51.05
21988;BME280;11158;53.404;-1.510;2023-05-10T02:56:51;99952.94;;;16.11;50.75
21988;BME280;11158;53.404;-1.510;2023-05-10T02:59:37;99949.44;;;16.22;50.30
21988;BME280;11158;53.404;-1.510;2023-05-10T03:02:21;99954.25;;;16.32;50.18
21988;BME280;11158;53.404;-1.510;2023-05-10T03:05:06;99950.59;;;16.15;50.71
21988;BME280;11158;53.404;-1.510;2023-05-10T03:07:50;99955.44;;;16.24;50.47
21988;BME280;11158;53.404;-1.510;2023-05-10T03:10:41;99950.75;;;16.31;49.94
21988;BME280;11158;53.404;-1.510;2023-05-10T03:16:28;99948.84;;;16.08;50.67
21988;BME280;11158;53.404;-1.510;2023-05-10T03:22:34;99942.59;;;16.08;50.44
21988;BME280;11158;53.404;-1.510;2023-05-10T03:25:21;99946.91;;;15.85;51.40
21988;BME280;11158;53.404;-1.510;2023-05-10T03:28:07;99949.91;;;15.77;51.66
21988;BME280;11158;53.404;-1.510;2023-05-10T03:30:53;99947.06;;;16.02;51.00
21988;BME280;11158;53.404;-1.510;2023-05-10T03:33:52;99943.31;;;16.03;51.15
21988;BME280;11158;53.404;-1.510;2023-05-10T03:36:36;99948.81;;;15.97;51.01
21988;BME280;11158;53.404;-1.510;2023-05-10T03:39:20;99945.88;;;15.98;51.01
21988;BME280;11158;53.404;-1.510;2023-05-10T03:42:05;99946.53;;;15.82;51.33
21988;BME280;11158;53.404;-1.510;2023-05-10T03:44:49;99943.31;;;15.43;52.32
21988;BME280;11158;53.404;-1.510;2023-05-10T03:47:33;99950.53;;;15.61;51.83
21988;BME280;11158;53.404;-1.510;2023-05-10T03:50:17;99951.94;;;15.82;51.30
21988;BME280;11158;53.404;-1.510;2023-05-10T03:53:02;99948.75;;;15.85;51.30
21988;BME280;11158;53.404;-1.510;2023-05-10T03:55:46;99953.31;;;15.54;51.82
21988;BME280;11158;53.404;-1.510;2023-05-10T03:58:30;99955.09;;;15.60;51.80
21988;BME280;11158;53.404;-1.510;2023-05-10T04:01:14;99951.72;;;15.35;52.38
21988;BME280;11158;53.404;-1.510;2023-05-10T04:03:59;99951.53;;;15.48;51.81
21988;BME280;11158;53.404;-1.510;2023-05-10T04:06:42;99956.75;;;15.61;51.78
21988;BME280;11158;53.404;-1.510;2023-05-10T04:09:26;99960.09;;;15.26;52.32
21988;BME280;11158;53.404;-1.510;2023-05-10T04:12:11;99956.88;;;15.18;52.55
21988;BME280;11158;53.404;-1.510;2023-05-10T04:14:55;99957.19;;;15.28;52.36
21988;BME280;11158;53.404;-1.510;2023-05-10T04:17:39;99953.53;;;15.53;51.90
21988;BME280;11158;53.404;-1.510;2023-05-10T04:20:23;99957.13;;;15.65;51.55
21988;BME280;11158;53.404;-1.510;2023-05-10T04:23:07;99954.31;;;15.90;51.19
21988;BME280;11158;53.404;-1.510;2023-05-10T04:25:51;99959.09;;;15.88;50.88
21988;BME280;11158;53.404;-1.510;2023-05-10T04:28:35;99957.69;;;15.85;50.94
21988;BME280;11158;53.404;-1.510;2023-05-10T04:31:19;99952.16;;;15.62;51.54
21988;BME280;11158;53.404;-1.510;2023-05-10T04:34:04;99957.66;;;15.74;51.98
21988;BME280;11158;53.404;-1.510;2023-05-10T04:36:48;99961.50;;;15.78;51.45
21988;BME280;11158;53.404;-1.510;2023-05-10T04:39:32;99961.94;;;14.71;54.00
21988;BME280;11158;53.404;-1.510;2023-05-10T04:42:17;99962.25;;;14.81;54.35
21988;BME280;11158;53.404;-1.510;2023-05-10T04:45:00;99954.84;;;14.95;53.80
21988;BME280;11158;53.404;-1.510;2023-05-10T04:47:45;99956.28;;;14.97;54.03
21988;BME280;11158;53.404;-1.510;2023-05-10T04:50:29;99950.53;;;15.31;53.05
21988;BME280;11158;53.404;-1.510;2023-05-10T04:53:13;99962.03;;;15.38;53.13
21988;BME280;11158;53.404;-1.510;2023-05-10T04:55:57;99956.97;;;15.78;52.02
21988;BME280;11158;53.404;-1.510;2023-05-10T04:58:41;99964.25;;;16.90;50.11
21988;BME280;11158;53.404;-1.510;2023-05-10T05:01:25;99953.22;;;17.85;47.70
21988;BME280;11158;53.404;-1.510;2023-05-10T05:04:16;99964.16;;;18.96;44.56
21988;BME280;11158;53.404;-1.510;2023-05-10T05:07:00;99957.16;;;19.88;42.52
21988;BME280;11158;53.404;-1.510;2023-05-10T05:09:44;99963.72;;;21.05;39.97
21988;BME280;11158;53.404;-1.510;2023-05-10T05:12:29;99967.38;;;22.25;37.44
21988;BME280;11158;53.404;-1.510;2023-05-10T05:15:13;99965.41;;;22.82;35.67
21988;BME280;11158;53.404;-1.510;2023-05-10T05:17:59;99966.88;;;23.34;34.57
21988;BME280;11158;53.404;-1.510;2023-05-10T05:20:43;99968.94;;;22.67;35.09
21988;BME280;11158;53.404;-1.510;2023-05-10T05:23:27;99971.97;;;22.55;35.74
21988;BME280;11158;53.404;-1.510;2023-05-10T05:26:11;99981.63;;;23.28;34.92
21988;BME280;11158;53.404;-1.510;2023-05-10T05:28:55;99980.06;;;23.11;34.85
21988;BME280;11158;53.404;-1.510;2023-05-10T05:31:39;99981.56;;;23.38;34.38
21988;BME280;11158;53.404;-1.510;2023-05-10T05:34:24;99982.16;;;23.35;34.53
21988;BME280;11158;53.404;-1.510;2023-05-10T05:37:12;99990.44;;;22.02;36.71
21988;BME280;11158;53.404;-1.510;2023-05-10T05:39:56;99999.13;;;21.20;38.15
21988;BME280;11158;53.404;-1.510;2023-05-10T05:42:40;99999.31;;;21.51;38.17
21988;BME280;11158;53.404;-1.510;2023-05-10T05:45:25;99994.81;;;22.13;36.89
21988;BME280;11158;53.404;-1.510;2023-05-10T05:48:09;99998.66;;;22.48;36.23
21988;BME280;11158;53.404;-1.510;2023-05-10T05:50:54;99987.13;;;23.77;34.09
21988;BME280;11158;53.404;-1.510;2023-05-10T05:53:39;99977.38;;;24.45;32.94
21988;BME280;11158;53.404;-1.510;2023-05-10T05:56:23;99984.44;;;24.51;32.44
21988;BME280;11158;53.404;-1.510;2023-05-10T05:59:08;99981.28;;;24.68;32.10
21988;BME280;11158;53.404;-1.510;2023-05-10T06:01:52;99992.66;;;25.71;30.43
21988;BME280;11158;53.404;-1.510;2023-05-10T06:04:36;99988.31;;;25.70;30.19
21988;BME280;11158;53.404;-1.510;2023-05-10T06:07:21;99989.25;;;26.18;29.57
21988;BME280;11158;53.404;-1.510;2023-05-10T06:10:06;99989.50;;;25.16;31.08
21988;BME280;11158;53.404;-1.510;2023-05-10T06:12:50;99994.25;;;24.81;32.11
21988;BME280;11158;53.404;-1.510;2023-05-10T06:15:34;99986.03;;;25.97;30.24
21988;BME280;11158;53.404;-1.510;2023-05-10T06:18:18;99979.38;;;26.03;29.75
21988;BME280;11158;53.404;-1.510;2023-05-10T06:21:02;99984.50;;;27.58;27.72
21988;BME280;11158;53.404;-1.510;2023-05-10T06:23:46;99983.13;;;26.59;28.90
21988;BME280;11158;53.404;-1.510;2023-05-10T06:26:30;99981.28;;;27.78;27.16
21988;BME280;11158;53.404;-1.510;2023-05-10T06:29:14;99982.19;;;27.38;27.64
21988;BME280;11158;53.404;-1.510;2023-05-10T06:31:59;99987.75;;;26.91;28.84
21988;BME280;11158;53.404;-1.510;2023-05-10T06:34:42;99992.38;;;27.87;27.02
21988;BME280;11158;53.404;-1.510;2023-05-10T06:37:28;99988.06;;;29.34;25.54
21988;BME280;11158;53.404;-1.510;2023-05-10T06:40:12;100000.50;;;27.28;27.85
21988;BME280;11158;53.404;-1.510;2023-05-10T06:42:57;100000.81;;;27.91;26.93
21988;BME280;11158;53.404;-1.510;2023-05-10T06:45:40;100001.06;;;28.03;26.82
21988;BME280;11158;53.404;-1.510;2023-05-10T06:48:24;99997.75;;;29.14;25.44
21988;BME280;11158;53.404;-1.510;2023-05-10T06:51:08;100004.00;;;28.74;25.13
21988;BME280;11158;53.404;-1.510;2023-05-10T06:53:53;99997.53;;;28.03;26.07
21988;BME280;11158;53.404;-1.510;2023-05-10T06:56:36;100016.09;;;27.55;26.75
21988;BME280;11158;53.404;-1.510;2023-05-10T06:59:20;100012.91;;;27.76;26.54
21988;BME280;11158;53.404;-1.510;2023-05-10T07:02:05;99996.47;;;30.03;23.73
21988;BME280;11158;53.404;-1.510;2023-05-10T07:04:50;99993.38;;;31.64;21.28
21988;BME280;11158;53.404;-1.510;2023-05-10T07:07:35;99982.63;;;33.29;19.71
21988;BME280;11158;53.404;-1.510;2023-05-10T07:10:20;99988.50;;;33.15;19.91
21988;BME280;11158;53.404;-1.510;2023-05-10T07:13:04;99990.25;;;31.65;21.09
21988;BME280;11158;53.404;-1.510;2023-05-10T07:15:48;100004.06;;;30.33;23.44
21988;BME280;11158;53.404;-1.510;2023-05-10T07:18:32;99999.31;;;30.59;22.91
21988;BME280;11158;53.404;-1.510;2023-05-10T07:21:16;99996.06;;;32.48;20.61
21988;BME280;11158;53.404;-1.510;2023-05-10T07:24:00;99986.69;;;33.72;19.58
21988;BME280;11158;53.404;-1.510;2023-05-10T07:26:45;99994.88;;;32.03;21.02
21988;BME280;11158;53.404;-1.510;2023-05-10T07:29:29;99992.69;;;32.75;20.25
21988;BME280;11158;53.404;-1.510;2023-05-10T07:32:13;99989.28;;;34.33;18.64
21988;BME280;11158;53.404;-1.510;2023-05-10T07:34:57;99986.16;;;34.35;18.68
21988;BME280;11158;53.404;-1.510;2023-05-10T07:37:41;99972.97;;;35.23;17.98
21988;BME280;11158;53.404;-1.510;2023-05-10T07:40:25;99992.69;;;31.88;21.15
21988;BME280;11158;53.404;-1.510;2023-05-10T07:43:10;100003.84;;;28.26;25.44
21988;BME280;11158;53.404;-1.510;2023-05-10T07:45:54;100017.88;;;27.38;27.10
21988;BME280;11158;53.404;-1.510;2023-05-10T07:48:37;100019.19;;;25.52;29.57
21988;BME280;11158;53.404;-1.510;2023-05-10T07:51:22;100029.41;;;23.80;32.70
21988;BME280;11158;53.404;-1.510;2023-05-10T07:54:06;100026.97;;;22.62;35.62
21988;BME280;11158;53.404;-1.510;2023-05-10T07:56:50;100030.47;;;22.16;37.11
21988;BME280;11158;53.404;-1.510;2023-05-10T07:59:34;100040.72;;;21.79;37.66
21988;BME280;11158;53.404;-1.510;2023-05-10T08:02:19;100039.25;;;20.65;39.37
21988;BME280;11158;53.404;-1.510;2023-05-10T08:05:03;100037.94;;;21.10;38.50
21988;BME280;11158;53.404;-1.510;2023-05-10T08:07:49;100038.66;;;20.58;39.54
21988;BME280;11158;53.404;-1.510;2023-05-10T08:10:33;100033.34;;;20.74;39.07
21988;BME280;11158;53.404;-1.510;2023-05-10T08:13:17;100037.25;;;20.88;38.73
21988;BME280;11158;53.404;-1.510;2023-05-10T08:16:02;100036.38;;;21.25;38.63
21988;BME280;11158;53.404;-1.510;2023-05-10T08:18:46;100041.88;;;20.55;39.94
21988;BME280;11158;53.404;-1.510;2023-05-10T08:21:30;100043.34;;;20.41;40.90
21988;BME280;11158;53.404;-1.510;2023-05-10T08:24:15;100029.25;;;20.71;39.59
21988;BME280;11158;53.404;-1.510;2023-05-10T08:26:59;100044.38;;;20.99;38.98
21988;BME280;11158;53.404;-1.510;2023-05-10T08:29:43;100036.28;;;21.62;38.01
21988;BME280;11158;53.404;-1.510;2023-05-10T08:32:27;100045.88;;;21.17;38.08
21988;BME280;11158;53.404;-1.510;2023-05-10T08:35:11;100043.16;;;21.17;37.55
21988;BME280;11158;53.404;-1.510;2023-05-10T08:37:56;100040.75;;;21.26;37.74
21988;BME280;11158;53.404;-1.510;2023-05-10T08:40:44;100042.13;;;21.96;37.27
21988;BME280;11158;53.404;-1.510;2023-05-10T08:43:29;100034.88;;;22.84;36.15
21988;BME280;11158;53.404;-1.510;2023-05-10T08:46:19;100024.78;;;23.70;33.69
21988;BME280;11158;53.404;-1.510;2023-05-10T08:49:06;100026.16;;;23.03;34.53
21988;BME280;11158;53.404;-1.510;2023-05-10T08:51:53;100024.16;;;22.06;35.37
21988;BME280;11158;53.404;-1.510;2023-05-10T08:54:39;100023.97;;;22.28;34.65
21988;BME280;11158;53.404;-1.510;2023-05-10T08:57:24;100032.88;;;22.03;35.44
21988;BME280;11158;53.404;-1.510;2023-05-10T09:00:09;100033.53;;;22.41;34.62
21988;BME280;11158;53.404;-1.510;2023-05-10T09:02:54;100031.59;;;22.72;34.09
21988;BME280;11158;53.404;-1.510;2023-05-10T09:05:38;100033.44;;;23.17;33.86
21988;BME280;11158;53.404;-1.510;2023-05-10T09:08:23;100028.06;;;23.02;33.57
21988;BME280;11158;53.404;-1.510;2023-05-10T09:11:11;100029.59;;;23.29;33.48
21988;BME280;11158;53.404;-1.510;2023-05-10T09:13:56;100026.38;;;22.09;35.28
21988;BME280;11158;53.404;-1.510;2023-05-10T09:16:40;100028.06;;;22.41;34.75
21988;BME280;11158;53.404;-1.510;2023-05-10T09:19:25;100030.19;;;23.15;33.84
21988;BME280;11158;53.404;-1.510;2023-05-10T09:22:09;100033.50;;;22.56;34.77
21988;BME280;11158;53.404;-1.510;2023-05-10T09:25:10;100039.22;;;22.80;34.36
21988;BME280;11158;53.404;-1.510;2023-05-10T09:27:55;100035.69;;;22.33;34.77
21988;BME280;11158;53.404;-1.510;2023-05-10T09:30:39;100041.13;;;22.44;35.29
21988;BME280;11158;53.404;-1.510;2023-05-10T09:33:23;100043.19;;;21.85;36.52
21988;BME280;11158;53.404;-1.510;2023-05-10T09:36:09;100046.13;;;21.68;37.13
21988;BME280;11158;53.404;-1.510;2023-05-10T09:38:53;100045.13;;;22.00;36.61
21988;BME280;11158;53.404;-1.510;2023-05-10T09:41:37;100039.28;;;21.56;37.21
21988;BME280;11158;53.404;-1.510;2023-05-10T09:44:22;100051.44;;;20.63;39.30
21988;BME280;11158;53.404;-1.510;2023-05-10T09:47:07;100047.19;;;20.45;39.99
21988;BME280;11158;53.404;-1.510;2023-05-10T09:49:52;100046.41;;;20.17;40.43
21988;BME280;11158;53.404;-1.510;2023-05-10T09:55:44;100040.75;;;21.26;39.25
21988;BME280;11158;53.404;-1.510;2023-05-10T09:58:29;100039.31;;;21.13;38.70
21988;BME280;11158;53.404;-1.510;2023-05-10T10:01:13;100042.84;;;20.71;39.21
21988;BME280;11158;53.404;-1.510;2023-05-10T10:03:58;100043.16;;;21.17;38.71
21988;BME280;11158;53.404;-1.510;2023-05-10T10:06:42;100040.06;;;22.50;36.51
21988;BME280;11158;53.404;-1.510;2023-05-10T10:09:26;100041.09;;;23.91;33.96
21988;BME280;11158;53.404;-1.510;2023-05-10T10:12:11;100034.47;;;23.42;34.43
21988;BME280;11158;53.404;-1.510;2023-05-10T10:14:56;100027.75;;;23.89;32.50
21988;BME280;11158;53.404;-1.510;2023-05-10T10:17:40;100028.13;;;23.62;33.30
21988;BME280;11158;53.404;-1.510;2023-05-10T10:20:26;100033.78;;;22.75;34.96
21988;BME280;11158;53.404;-1.510;2023-05-10T10:23:10;100026.78;;;23.54;32.87
21988;BME280;11158;53.404;-1.510;2023-05-10T10:25:54;100028.34;;;22.59;35.36
21988;BME280;11158;53.404;-1.510;2023-05-10T10:31:38;100021.97;;;21.82;36.59
21988;BME280;11158;53.404;-1.510;2023-05-10T10:34:31;100024.16;;;23.29;34.49
21988;BME280;11158;53.404;-1.510;2023-05-10T10:37:15;100011.16;;;23.00;34.34
21988;BME280;11158;53.404;-1.510;2023-05-10T10:40:00;100018.13;;;23.37;33.63
21988;BME280;11158;53.404;-1.510;2023-05-10T10:42:44;100016.63;;;22.64;34.63
21988;BME280;11158;53.404;-1.510;2023-05-10T10:45:29;100018.53;;;22.43;34.94
21988;BME280;11158;53.404;-1.510;2023-05-10T10:48:21;100016.06;;;22.47;34.68
21988;BME280;11158;53.404;-1.510;2023-05-10T10:51:06;100022.03;;;22.90;34.35
21988;BME280;11158;53.404;-1.510;2023-05-10T10:53:51;100016.91;;;22.42;35.72
21988;BME280;11158;53.404;-1.510;2023-05-10T10:56:35;100015.69;;;21.77;36.76
21988;BME280;11158;53.404;-1.510;2023-05-10T10:59:27;100014.28;;;21.69;37.15
21988;BME280;11158;53.404;-1.510;2023-05-10T11:08:27;100032.50;;;20.41;41.30
21988;BME280;11158;53.404;-1.510;2023-05-10T11:11:14;100038.25;;;21.19;40.04
21988;BME280;11158;53.404;-1.510;2023-05-10T11:14:03;100029.09;;;21.36;40.88
21988;BME280;11158;53.404;-1.510;2023-05-10T11:16:49;100031.81;;;20.88;42.07
21988;BME280;11158;53.404;-1.510;2023-05-10T11:19:34;100024.41;;;21.79;40.30
21988;BME280;11158;53.404;-1.510;2023-05-10T11:22:18;100026.97;;;22.57;38.36
21988;BME280;11158;53.404;-1.510;2023-05-10T11:25:02;100027.41;;;23.31;36.74
21988;BME280;11158;53.404;-1.510;2023-05-10T11:27:47;100021.09;;;23.40;36.16
21988;BME280;11158;53.404;-1.510;2023-05-10T11:30:40;100017.69;;;22.89;36.64
21988;BME280;11158;53.404;-1.510;2023-05-10T11:33:25;100016.13;;;23.58;35.42
21988;BME280;11158;53.404;-1.510;2023-05-10T11:36:17;100015.03;;;23.64;34.28
21988;BME280;11158;53.404;-1.510;2023-05-10T11:39:02;100001.34;;;23.74;34.24
21988;BME280;11158;53.404;-1.510;2023-05-10T11:41:49;100000.50;;;23.79;34.66
21988;BME280;11158;53.404;-1.510;2023-05-10T11:44:33;99996.66;;;23.15;35.19
21988;BME280;11158;53.404;-1.510;2023-05-10T11:47:17;100004.63;;;22.45;35.95
21988;BME280;11158;53.404;-1.510;2023-05-10T11:50:01;99994.81;;;22.69;35.78
21988;BME280;11158;53.404;-1.510;2023-05-10T11:52:50;99988.00;;;22.82;35.55
21988;BME280;11158;53.404;-1.510;2023-05-10T11:55:35;99995.81;;;23.25;35.42
21988;BME280;11158;53.404;-1.510;2023-05-10T11:58:19;99987.34;;;23.86;34.07
21988;BME280;11158;53.404;-1.510;2023-05-10T12:01:06;99982.13;;;24.29;32.98
21988;BME280;11158;53.404;-1.510;2023-05-10T12:03:52;99978.28;;;23.96;32.83
21988;BME280;11158;53.404;-1.510;2023-05-10T12:06:40;100014.97;;;22.78;34.44
21988;BME280;11158;53.404;-1.510;2023-05-10T12:09:25;100035.50;;;20.12;39.53
21988;BME280;11158;53.404;-1.510;2023-05-10T12:12:09;100045.47;;;19.18;42.73
21988;BME280;11158;53.404;-1.510;2023-05-10T12:14:53;100044.09;;;19.16;43.58
21988;BME280;11158;53.404;-1.510;2023-05-10T12:17:38;100037.22;;;19.30;43.46
21988;BME280;11158;53.404;-1.510;2023-05-10T12:20:27;100042.03;;;19.45;43.91
21988;BME280;11158;53.404;-1.510;2023-05-10T12:23:12;100031.19;;;19.89;42.70
21988;BME280;11158;53.404;-1.510;2023-05-10T12:26:02;100032.22;;;20.69;40.01
21988;BME280;11158;53.404;-1.510;2023-05-10T12:28:47;100041.41;;;21.01;39.33
21988;BME280;11158;53.404;-1.510;2023-05-10T12:31:32;100039.13;;;22.03;37.43
21988;BME280;11158;53.404;-1.510;2023-05-10T12:34:27;100045.63;;;21.77;37.42
21988;BME280;11158;53.404;-1.510;2023-05-10T12:37:14;100042.38;;;21.32;38.25
21988;BME280;11158;53.404;-1.510;2023-05-10T12:39:58;100047.50;;;20.48;42.21
21988;BME280;11158;53.404;-1.510;2023-05-10T12:42:43;100058.28;;;19.67;45.67
21988;BME280;11158;53.404;-1.510;2023-05-10T12:45:29;100056.16;;;19.47;48.40
21988;BME280;11158;53.404;-1.510;2023-05-10T12:48:13;100042.22;;;19.38;49.05
21988;BME280;11158;53.404;-1.510;2023-05-10T12:50:57;100032.00;;;20.44;46.62
21988;BME280;11158;53.404;-1.510;2023-05-10T12:53:42;100033.88;;;21.13;45.88
21988;BME280;11158;53.404;-1.510;2023-05-10T12:56:26;100024.81;;;20.27;45.67
21988;BME280;11158;53.404;-1.510;2023-05-10T12:59:10;100031.25;;;21.33;44.60
21988;BME280;11158;53.404;-1.510;2023-05-10T13:01:54;100030.34;;;21.60;43.62
21988;BME280;11158;53.404;-1.510;2023-05-10T13:04:39;100026.59;;;21.82;42.71
21988;BME280;11158;53.404;-1.510;2023-05-10T13:07:23;100023.06;;;21.86;41.77
21988;BME280;11158;53.404;-1.510;2023-05-10T13:10:07;100031.88;;;22.29;41.00
21988;BME280;11158;53.404;-1.510;2023-05-10T13:12:51;100034.59;;;22.40;41.43
21988;BME280;11158;53.404;-1.510;2023-05-10T13:15:35;100029.41;;;22.58;40.48
21988;BME280;11158;53.404;-1.510;2023-05-10T13:18:19;100032.91;;;22.13;41.32
21988;BME280;11158;53.404;-1.510;2023-05-10T13:21:04;100036.78;;;22.32;40.92
21988;BME280;11158;53.404;-1.510;2023-05-10T13:23:49;100035.84;;;21.28;41.93
21988;BME280;11158;53.404;-1.510;2023-05-10T13:26:33;100044.84;;;21.96;41.69
21988;BME280;11158;53.404;-1.510;2023-05-10T13:29:17;100043.88;;;21.55;41.41
21988;BME280;11158;53.404;-1.510;2023-05-10T13:32:02;100048.88;;;20.78;43.16
21988;BME280;11158;53.404;-1.510;2023-05-10T13:34:46;100052.75;;;20.28;44.65
21988;BME280;11158;53.404;-1.510;2023-05-10T13:37:31;100052.16;;;20.80;43.60
21988;BME280;11158;53.404;-1.510;2023-05-10T13:40:15;100059.22;;;20.54;45.51
21988;BME280;11158;53.404;-1.510;2023-05-10T13:42:59;100056.09;;;20.67;45.44
21988;BME280;11158;53.404;-1.510;2023-05-10T13:45:43;100058.63;;;20.79;45.02
21988;BME280;11158;53.404;-1.510;2023-05-10T13:48:28;100056.31;;;20.34;46.32
21988;BME280;11158;53.404;-1.510;2023-05-10T13:51:12;100058.38;;;20.48;46.66
21988;BME280;11158;53.404;-1.510;2023-05-10T13:53:58;100054.00;;;21.12;44.95
21988;BME280;11158;53.404;-1.510;2023-05-10T13:56:42;100051.13;;;21.39;43.90
21988;BME280;11158;53.404;-1.510;2023-05-10T13:59:28;100051.38;;;22.01;42.44
21988;BME280;11158;53.404;-1.510;2023-05-10T14:02:15;100050.38;;;22.37;40.63
21988;BME280;11158;53.404;-1.510;2023-05-10T14:05:00;100049.25;;;22.18;40.66
21988;BME280;11158;53.404;-1.510;2023-05-10T14:07:44;100050.41;;;22.53;39.58
21988;BME280;11158;53.404;-1.510;2023-05-10T14:10:28;100048.78;;;22.72;38.93
21988;BME280;11158;53.404;-1.510;2023-05-10T14:13:13;100036.50;;;22.44;39.13
21988;BME280;11158;53.404;-1.510;2023-05-10T14:15:57;100038.28;;;21.87;40.70
21988;BME280;11158;53.404;-1.510;2023-05-10T14:18:44;100043.03;;;22.89;38.67
21988;BME280;11158;53.404;-1.510;2023-05-10T14:21:28;100044.94;;;22.32;40.89
21988;BME280;11158;53.404;-1.510;2023-05-10T14:24:15;100032.06;;;23.20;37.96
21988;BME280;11158;53.404;-1.510;2023-05-10T14:26:59;100037.44;;;23.51;37.79
21988;BME280;11158;53.404;-1.510;2023-05-10T14:29:43;100032.19;;;24.19;35.85
21988;BME280;11158;53.404;-1.510;2023-05-10T14:32:28;100032.09;;;23.90;36.90
21988;BME280;11158;53.404;-1.510;2023-05-10T14:35:16;100030.84;;;23.57;36.72
21988;BME280;11158;53.404;-1.510;2023-05-10T14:38:01;100039.63;;;23.49;37.06
21988;BME280;11158;53.404;-1.510;2023-05-10T14:40:47;100030.34;;;23.50;37.45
21988;BME280;11158;53.404;-1.510;2023-05-10T14:43:31;100032.03;;;23.46;37.41
21988;BME280;11158;53.404;-1.510;2023-05-10T14:46:15;100038.16;;;22.66;39.71
21988;BME280;11158;53.404;-1.510;2023-05-10T14:49:00;100031.84;;;22.96;39.55
21988;BME280;11158;53.404;-1.510;2023-05-10T14:51:44;100029.97;;;22.71;39.16